Time;durP1;ratioP1;P1;durP2;ratioP2;P2;SDS_P1;SDS_P2;PMS_P1;PMS_P2;Temp;Humidity;BMP_temperature;BMP_pressure;BME280_temperature;BME280_humidity;BME280_pressure;Samples;Min_cycle;Max_cycle;Signal;HPM_P1;HPM_P2
2022/09/20 00:01:14;;;;;;;3.75;1.30;;;14.00;99.90;;;;;;5095305;28;20020;-52
2022/09/20 00:03:42;;;;;;;2.45;1.23;;;13.70;99.90;;;;;;5095071;28;20039;-52
2022/09/20 00:06:10;;;;;;;3.05;1.40;;;13.80;99.90;;;;;;5094816;28;20020;-52
2022/09/20 00:08:37;;;;;;;2.03;1.15;;;13.60;99.90;;;;;;5095002;28;20028;-51
2022/09/20 00:11:05;;;;;;;3.00;1.50;;;13.90;99.90;;;;;;5095146;28;20095;-51
2022/09/20 00:13:32;;;;;;;2.67;1.38;;;13.70;99.90;;;;;;5095402;28;20024;-53
2022/09/20 00:15:58;;;;;;;2.35;1.23;;;13.90;99.90;;;;;;5094994;28;20024;-53
2022/09/20 00:18:25;;;;;;;1.88;1.17;;;13.90;99.90;;;;;;5094811;28;20048;-54
2022/09/20 00:20:52;;;;;;;3.67;1.20;;;13.80;99.90;;;;;;5094499;28;20028;-54
2022/09/20 00:23:18;;;;;;;3.38;1.20;;;13.80;99.90;;;;;;5094987;28;20103;-51
2022/09/20 00:25:45;;;;;;;2.28;1.25;;;13.60;99.90;;;;;;5094648;28;20173;-50
2022/09/20 00:28:11;;;;;;;1.45;1.20;;;13.20;99.90;;;;;;5094313;28;20020;-52
2022/09/20 00:30:38;;;;;;;2.78;1.20;;;13.40;99.90;;;;;;5094679;28;20047;-53
2022/09/20 00:33:03;;;;;;;2.72;1.30;;;13.40;99.90;;;;;;5094618;28;20462;-53
2022/09/20 00:35:29;;;;;;;1.98;1.25;;;13.20;99.90;;;;;;5094657;28;20099;-52
2022/09/20 00:37:56;;;;;;;2.90;1.50;;;13.40;99.90;;;;;;5094528;28;20512;-53
2022/09/20 00:40:25;;;;;;;2.40;1.30;;;13.80;99.90;;;;;;5094527;28;20052;-53
2022/09/20 00:42:51;;;;;;;2.85;1.30;;;13.60;99.90;;;;;;5094405;28;20085;-52
2022/09/20 00:45:26;;;;;;;2.75;1.40;;;13.20;99.90;;;;;;5094328;28;20036;-53
2022/09/20 00:47:57;;;;;;;1.83;1.30;;;13.00;99.90;;;;;;5094168;28;20016;-54
2022/09/20 00:50:32;;;;;;;2.85;1.25;;;13.50;99.90;;;;;;5094171;28;20028;-54
2022/09/20 00:53:10;;;;;;;1.92;1.33;;;13.50;99.90;;;;;;5094165;28;20048;-53
2022/09/20 00:55:41;;;;;;;1.83;1.23;;;13.00;99.90;;;;;;5094252;28;20027;-53
2022/09/20 00:58:08;;;;;;;4.53;1.50;;;12.50;99.90;;;;;;5094223;28;20020;-53
2022/09/20 01:00:34;;;;;;;3.72;1.30;;;12.10;99.90;;;;;;5094155;28;20016;-54
2022/09/20 01:03:05;;;;;;;2.60;1.45;;;11.70;99.90;;;;;;5094356;28;20024;-54
2022/09/20 01:05:31;;;;;;;3.17;1.30;;;11.80;99.90;;;;;;5093786;28;20059;-53
2022/09/20 01:07:57;;;;;;;2.50;1.50;;;11.40;99.90;;;;;;5093866;28;20044;-54
2022/09/20 01:10:23;;;;;;;2.42;1.58;;;11.10;99.90;;;;;;5094287;28;20066;-53
2022/09/20 01:12:51;;;;;;;3.25;1.70;;;11.00;99.90;;;;;;5094045;28;20382;-51
2022/09/20 01:15:18;;;;;;;2.63;1.67;;;10.70;99.90;;;;;;5093923;28;20028;-53
2022/09/20 01:17:49;;;;;;;3.47;1.70;;;10.50;99.90;;;;;;5093741;28;20028;-53
2022/09/20 01:20:25;;;;;;;3.05;1.77;;;10.50;99.90;;;;;;5093244;28;20016;-54
2022/09/20 01:22:54;;;;;;;6.15;1.70;;;10.50;99.90;;;;;;5093728;28;20032;-52
2022/09/20 01:25:50;;;;;;;3.13;1.55;;;10.40;99.90;;;;;;5093649;28;20032;-53
2022/09/20 01:28:16;;;;;;;4.03;1.50;;;10.30;99.90;;;;;;5093579;28;20020;-53
2022/09/20 01:30:56;;;;;;;3.00;1.42;;;10.10;99.90;;;;;;5093272;28;20054;-53
2022/09/20 01:33:48;;;;;;;3.55;1.60;;;10.10;99.90;;;;;;5093355;28;20024;-53
2022/09/20 01:36:41;;;;;;;3.58;1.63;;;10.00;99.90;;;;;;5093410;28;20036;-53
2022/09/20 01:39:40;;;;;;;2.47;1.65;;;10.00;99.90;;;;;;5093001;28;20042;-53
2022/09/20 01:42:11;;;;;;;3.35;1.88;;;9.80;99.90;;;;;;5093333;28;20102;-54
2022/09/20 01:44:40;;;;;;;2.95;1.75;;;9.70;99.90;;;;;;5093011;28;20112;-52
2022/09/20 01:47:27;;;;;;;3.65;1.60;;;9.60;99.90;;;;;;5093252;28;20072;-52
2022/09/20 01:50:04;;;;;;;2.05;1.40;;;9.60;99.90;;;;;;5073098;28;20078;-51
2022/09/20 01:52:38;;;;;;;3.75;1.50;;;9.50;99.90;;;;;;5072869;28;20116;-53
2022/09/20 01:55:47;;;;;;;2.45;1.40;;;9.40;99.90;;;;;;5072939;28;20025;-51
2022/09/20 01:58:16;;;;;;;3.40;1.67;;;9.40;99.90;;;;;;5072403;28;20099;-52
2022/09/20 02:00:51;;;;;;;3.10;1.80;;;9.40;99.90;;;;;;5072845;28;20399;-51
2022/09/20 02:03:35;;;;;;;3.10;1.95;;;9.30;99.90;;;;;;5072310;28;20036;-53
2022/09/20 02:06:22;;;;;;;2.47;1.58;;;9.30;99.90;;;;;;5072602;28;20028;-54
2022/09/20 02:09:20;;;;;;;2.60;1.55;;;9.20;99.90;;;;;;5010681;28;20171;-53
2022/09/20 02:11:53;;;;;;;2.97;1.90;;;9.20;99.90;;;;;;5010741;28;20033;-52
2022/09/20 02:14:30;;;;;;;3.42;1.70;;;9.10;99.90;;;;;;5011088;28;20038;-51
2022/09/20 02:17:24;;;;;;;2.92;1.63;;;9.00;99.90;;;;;;5010673;28;20520;-53
2022/09/20 02:20:23;;;;;;;2.70;1.70;;;9.00;99.90;;;;;;5011153;28;20551;-53
2022/09/20 02:23:03;;;;;;;2.40;1.80;;;8.90;99.90;;;;;;5011013;28;20067;-53
2022/09/20 02:26:06;;;;;;;2.65;1.50;;;8.80;99.90;;;;;;5010329;28;20601;-51
2022/09/20 02:28:40;;;;;;;3.22;1.60;;;8.70;99.90;;;;;;4971676;28;20139;-53
2022/09/20 02:31:24;;;;;;;5.72;1.83;;;8.70;99.90;;;;;;4971110;28;20124;-53
2022/09/20 02:34:08;;;;;;;2.50;1.88;;;8.60;99.90;;;;;;4971313;28;20031;-53
2022/09/20 02:36:46;;;;;;;;;;;8.50;99.90;;;;;;4971822;28;20034;-54
2022/09/20 02:39:20;;;;;;;2.28;2.00;;;8.50;99.90;;;;;;4971304;28;20324;-51
2022/09/20 02:42:16;;;;;;;3.15;1.80;;;8.40;99.90;;;;;;4971644;28;20037;-51
2022/09/20 02:45:05;;;;;;;3.83;1.83;;;8.30;99.90;;;;;;4971649;28;20162;-53
2022/09/20 02:47:42;;;;;;;3.83;2.00;;;8.30;99.90;;;;;;5024206;28;20037;-52
2022/09/20 02:50:20;;;;;;;2.45;1.88;;;8.30;99.90;;;;;;5029613;28;20025;-51
2022/09/20 02:53:13;;;;;;;2.90;1.80;;;8.20;99.90;;;;;;5029516;28;20504;-53
2022/09/20 02:56:22;;;;;;;4.70;1.98;;;8.10;99.90;;;;;;5030214;28;20242;-51
2022/09/20 02:58:47;;;;;;;2.05;1.85;;;8.10;99.90;;;;;;4967345;28;20035;-54
2022/09/20 03:01:37;;;;;;;2.63;1.75;;;8.10;99.90;;;;;;4971139;28;20114;-53
2022/09/20 03:04:18;;;;;;;2.40;1.70;;;8.00;99.90;;;;;;4981314;28;20046;-52
2022/09/20 03:07:20;;;;;;;2.70;1.70;;;7.90;99.90;;;;;;5049920;28;20036;-53
2022/09/20 03:10:10;;;;;;;3.50;1.80;;;7.90;99.90;;;;;;5049587;28;20059;-51
2022/09/20 03:12:54;;;;;;;2.28;1.60;;;7.90;99.90;;;;;;5049913;28;20124;-53
2022/09/20 03:15:33;;;;;;;2.25;1.70;;;7.80;99.90;;;;;;5049109;28;20036;-53
2022/09/20 03:18:12;;;;;;;2.70;1.80;;;7.80;99.90;;;;;;5049498;28;20535;-51
2022/09/20 03:21:08;;;;;;;2.95;1.60;;;7.80;99.90;;;;;;5049290;28;20037;-52
2022/09/20 03:23:48;;;;;;;3.15;1.80;;;7.70;99.90;;;;;;5049291;28;20108;-51
2022/09/20 03:26:20;;;;;;;3.70;1.95;;;7.80;99.90;;;;;;5049306;28;20021;-53
2022/09/20 03:29:17;;;;;;;3.22;1.70;;;7.70;99.90;;;;;;5048942;28;20063;-52
2022/09/20 03:32:02;;;;;;;6.57;1.88;;;7.70;99.90;;;;;;5049309;28;20391;-52
2022/09/20 03:34:43;;;;;;;2.58;1.83;;;7.70;99.90;;;;;;5052508;28;20021;-51
2022/09/20 03:37:29;;;;;;;2.83;1.60;;;7.60;99.90;;;;;;5091832;28;20413;-53
2022/09/20 03:40:16;;;;;;;3.70;1.80;;;7.50;99.90;;;;;;5091323;28;20381;-52
2022/09/20 03:42:51;;;;;;;3.25;1.60;;;7.40;99.90;;;;;;5091557;28;20028;-51
2022/09/20 03:45:36;;;;;;;3.30;1.90;;;7.40;99.90;;;;;;5091151;28;20493;-51
2022/09/20 03:48:32;;;;;;;2.40;1.70;;;7.40;99.90;;;;;;5091627;28;20467;-51
2022/09/20 03:51:22;;;;;;;5.97;2.10;;;7.30;99.90;;;;;;5091555;28;20035;-51
2022/09/20 03:54:41;;;;;;;4.60;1.98;;;7.30;99.90;;;;;;5091660;28;20052;-51
2022/09/20 03:57:19;;;;;;;6.22;2.00;;;7.30;99.90;;;;;;5029060;28;20037;-51
2022/09/20 03:59:56;;;;;;;5.25;1.98;;;7.20;99.90;;;;;;5028964;28;20511;-51
2022/09/20 04:02:38;;;;;;;3.42;1.70;;;7.20;99.90;;;;;;5029204;28;20067;-51
2022/09/20 04:05:25;;;;;;;3.25;1.90;;;7.20;99.90;;;;;;5032810;28;20037;-51
2022/09/20 04:08:18;;;;;;;3.30;1.88;;;7.10;99.90;;;;;;5032948;28;20037;-50
2022/09/20 04:11:10;;;;;;;3.53;1.90;;;7.10;99.90;;;;;;5032487;28;20502;-51
2022/09/20 04:13:53;;;;;;;4.15;2.08;;;7.00;99.90;;;;;;5032116;28;20025;-53
2022/09/20 04:16:48;;;;;;;4.68;2.17;;;7.00;99.90;;;;;;5032649;28;20029;-53
2022/09/20 04:19:31;;;;;;;4.15;1.90;;;7.00;99.90;;;;;;5032590;28;20124;-51
2022/09/20 04:22:00;;;;;;;3.85;1.85;;;7.00;99.90;;;;;;5032344;28;20535;-50
2022/09/20 04:24:28;;;;;;;5.30;1.70;;;7.00;99.90;;;;;;5032499;28;20045;-51
2022/09/20 04:27:21;;;;;;;4.22;1.63;;;6.90;99.90;;;;;;5044633;28;20040;-51
2022/09/20 04:30:07;;;;;;;4.25;1.88;;;6.90;99.90;;;;;;5094678;28;20062;-51
2022/09/20 04:32:43;;;;;;;4.68;1.70;;;6.90;99.90;;;;;;5094803;28;20438;-52
2022/09/20 04:38:12;;;;;;;4.68;1.70;;;6.80;99.90;;;;;;5094799;28;20031;-53
2022/09/20 04:40:47;;;;;;;2.95;1.50;;;6.80;99.90;;;;;;5094761;28;20059;-51
2022/09/20 04:43:54;;;;;;;4.80;1.73;;;6.70;99.90;;;;;;5094338;28;20046;-53
2022/09/20 04:46:46;;;;;;;6.82;1.95;;;6.70;99.90;;;;;;5094213;28;20418;-50
2022/09/20 04:49:42;;;;;;;4.30;1.90;;;6.60;99.90;;;;;;5094671;28;20020;-53
2022/09/20 04:52:17;;;;;;;3.70;1.88;;;6.60;99.90;;;;;;5094205;28;20028;-50
2022/09/20 04:55:01;;;;;;;2.97;1.65;;;6.70;99.90;;;;;;5094094;28;20458;-51
2022/09/20 04:57:47;;;;;;;3.78;1.75;;;6.70;99.90;;;;;;5093679;28;20478;-51
2022/09/20 05:00:22;;;;;;;4.50;1.70;;;6.70;99.90;;;;;;5031669;28;20040;-50
2022/09/20 05:03:15;;;;;;;3.83;1.73;;;6.70;99.90;;;;;;5031615;28;20129;-52
2022/09/20 05:05:44;;;;;;;4.45;1.60;;;6.70;99.90;;;;;;5031721;28;20299;-51
2022/09/20 05:08:25;;;;;;;6.78;1.77;;;6.70;99.90;;;;;;5031593;28;20026;-52
2022/09/20 05:11:10;;;;;;;2.53;1.30;;;6.70;99.90;;;;;;5031165;28;20045;-53
2022/09/20 05:13:50;;;;;;;4.18;1.50;;;12.20;99.90;;;;;;5014769;28;20041;-52
2022/09/20 05:16:39;;;;;;;3.42;1.50;;;11.00;99.90;;;;;;5031543;28;20104;-54
2022/09/20 05:19:13;;;;;;;5.65;1.50;;;8.30;99.90;;;;;;5031499;28;20041;-51
2022/09/20 05:22:05;;;;;;;8.65;1.60;;;7.50;99.90;;;;;;5031717;28;20041;-50
2022/09/20 05:24:33;;;;;;;3.53;1.48;;;7.40;99.90;;;;;;5031570;28;20604;-52
2022/09/20 05:27:32;;;;;;;6.07;1.63;;;7.60;99.90;;;;;;5030846;28;20038;-52
2022/09/20 05:30:21;;;;;;;2.88;1.70;;;7.70;99.90;;;;;;5030986;28;20021;-50
2022/09/20 05:32:54;;;;;;;4.18;1.60;;;7.60;99.90;;;;;;5031198;28;20026;-51
2022/09/20 05:35:22;;;;;;;5.10;1.40;;;7.60;99.90;;;;;;5031091;28;20049;-52
2022/09/20 05:38:10;;;;;;;3.17;1.45;;;8.00;99.90;;;;;;5074190;28;20036;-50
2022/09/20 05:41:04;;;;;;;3.95;1.60;;;7.90;99.90;;;;;;5093350;28;20497;-52
2022/09/20 05:44:15;;;;;;;5.10;1.73;;;8.10;99.90;;;;;;5093431;28;20107;-53
2022/09/20 05:46:57;;;;;;;5.28;1.45;;;7.80;99.90;;;;;;4952626;29;20049;-53
2022/09/20 05:50:07;;;;;;;5.43;1.35;;;8.20;99.90;;;;;;4936978;29;20027;-51
2022/09/20 05:52:59;;;;;;;3.00;1.15;;;13.10;99.90;;;;;;4952931;28;20502;-52
2022/09/20 05:56:08;;;;;;;4.68;1.25;;;14.50;99.90;;;;;;4952293;29;20050;-53
2022/09/20 05:58:34;;;;;;;5.43;1.60;;;14.60;99.90;;;;;;4952414;29;20454;-53
2022/09/20 06:01:03;;;;;;;4.78;1.55;;;10.70;99.90;;;;;;4952545;29;20055;-51
2022/09/20 06:03:53;;;;;;;4.68;1.20;;;9.20;99.90;;;;;;4952466;29;20078;-53
2022/09/20 06:06:41;;;;;;;4.43;1.35;;;8.70;99.90;;;;;;4952377;29;20078;-51
2022/09/20 06:09:31;;;;;;;5.47;1.40;;;8.40;99.90;;;;;;4952322;29;20066;-53
2022/09/20 06:12:05;;;;;;;5.18;1.60;;;9.20;99.90;;;;;;4952322;29;20054;-51
2022/09/20 06:14:47;;;;;;;5.20;1.50;;;8.80;99.90;;;;;;4952515;29;20033;-50
2022/09/20 06:17:13;;;;;;;7.07;1.55;;;8.60;99.90;;;;;;4952272;29;20042;-52
2022/09/20 06:19:49;;;;;;;4.18;1.52;;;9.00;99.90;;;;;;4952235;29;20054;-53
2022/09/20 06:22:41;;;;;;;6.43;1.70;;;8.90;99.90;;;;;;4956428;28;20147;-52
2022/09/20 06:25:07;;;;;;;5.05;1.65;;;10.40;99.90;;;;;;5052567;28;20036;-51
2022/09/20 06:27:45;;;;;;;7.15;1.50;;;12.20;99.90;;;;;;5070113;28;20035;-51
2022/09/20 06:30:30;;;;;;;6.57;1.70;;;12.80;99.90;;;;;;5069934;28;20039;-52
2022/09/20 06:32:58;;;;;;;8.10;1.80;;;13.40;99.90;;;;;;5087723;28;20567;-52
2022/09/20 06:35:36;;;;;;;3.75;1.30;;;13.80;99.90;;;;;;5092248;28;20032;-53
2022/09/20 06:41:27;;;;;;;2.65;1.17;;;18.10;99.90;;;;;;5092948;28;20043;-53
2022/09/20 06:43:57;;;;;;;5.30;1.50;;;17.70;99.90;;;;;;5092726;28;20530;-53
2022/09/20 06:46:28;;;;;;;7.03;1.38;;;18.20;99.90;;;;;;5092334;28;20035;-54
2022/09/20 06:48:55;;;;;;;2.90;1.17;;;18.10;99.90;;;;;;5092104;28;20056;-54
2022/09/20 06:51:22;;;;;;;2.45;1.30;;;18.40;98.30;;;;;;5092257;28;20080;-54
2022/09/20 06:53:48;;;;;;;4.82;1.40;;;19.10;97.40;;;;;;5090480;28;20109;-54
2022/09/20 06:56:19;;;;;;;2.90;1.05;;;19.60;96.20;;;;;;5092110;28;20056;-54
2022/09/20 06:58:45;;;;;;;2.97;1.48;;;19.60;95.90;;;;;;5090707;28;20070;-54
2022/09/20 07:01:12;;;;;;;4.78;1.45;;;19.30;95.80;;;;;;5092023;28;20029;-53
2022/09/20 07:03:38;;;;;;;7.82;1.50;;;19.10;95.90;;;;;;5091947;28;20024;-53
2022/09/20 07:06:05;;;;;;;3.95;1.30;;;19.10;95.80;;;;;;5092323;28;20078;-54
2022/09/20 07:08:31;;;;;;;5.40;1.40;;;19.10;95.50;;;;;;5091498;28;20013;-51
2022/09/20 07:11:02;;;;;;;3.70;1.50;;;20.10;94.80;;;;;;5092128;28;20028;-54
2022/09/20 07:13:28;;;;;;;4.57;1.50;;;20.40;94.00;;;;;;5092036;28;20027;-54
2022/09/20 07:16:01;;;;;;;3.53;1.20;;;20.80;93.20;;;;;;5092066;28;20497;-55
2022/09/20 07:18:27;;;;;;;2.80;1.50;;;20.90;92.90;;;;;;5091700;28;20024;-54
2022/09/20 07:20:53;;;;;;;7.95;1.70;;;21.10;92.60;;;;;;5090390;28;20026;-55
2022/09/20 07:23:18;;;;;;;5.47;1.30;;;21.20;92.20;;;;;;5091282;28;20024;-50
2022/09/20 07:25:44;;;;;;;2.83;1.20;;;21.40;91.80;;;;;;5092124;28;20043;-57
2022/09/20 07:28:10;;;;;;;4.95;1.60;;;20.80;92.70;;;;;;5091772;28;20028;-54
2022/09/20 07:30:35;;;;;;;4.85;1.40;;;21.70;91.60;;;;;;5091224;28;20031;-55
2022/09/20 07:33:01;;;;;;;3.55;1.60;;;21.80;91.60;;;;;;5091673;28;20105;-55
2022/09/20 07:35:27;;;;;;;3.72;1.33;;;21.70;91.40;;;;;;5091277;28;20016;-53
2022/09/20 07:37:57;;;;;;;6.95;1.60;;;21.60;91.30;;;;;;5094458;28;20016;-56
2022/09/20 07:40:22;;;;;;;4.88;1.40;;;22.10;90.90;;;;;;5096030;28;20028;-56
2022/09/20 07:42:48;;;;;;;6.07;1.40;;;22.80;89.40;;;;;;5094616;28;20043;-53
2022/09/20 07:45:14;;;;;;;5.53;1.40;;;22.90;89.00;;;;;;5096056;28;20474;-53
2022/09/20 07:47:40;;;;;;;9.73;1.50;;;21.90;90.40;;;;;;5094684;28;20502;-54
2022/09/20 07:50:08;;;;;;;7.05;1.50;;;21.60;91.50;;;;;;5094183;28;20032;-55
2022/09/20 07:52:34;;;;;;;3.85;1.50;;;22.90;89.60;;;;;;5095547;28;20048;-55
2022/09/20 07:55:00;;;;;;;4.57;1.40;;;23.00;88.10;;;;;;5095201;28;20038;-55
2022/09/20 07:57:25;;;;;;;5.95;1.73;;;22.10;89.50;;;;;;5095231;28;20104;-54
2022/09/20 07:59:51;;;;;;;6.88;1.50;;;22.30;89.40;;;;;;5095236;28;20027;-55
2022/09/20 08:02:17;;;;;;;4.20;1.50;;;23.10;88.10;;;;;;5095360;28;20398;-55
2022/09/20 08:04:43;;;;;;;9.05;1.67;;;22.70;88.50;;;;;;5094929;28;20039;-54
2022/09/20 08:07:09;;;;;;;6.30;1.65;;;23.40;87.30;;;;;;5095086;28;20039;-53
2022/09/20 08:09:34;;;;;;;7.18;1.73;;;22.90;88.00;;;;;;5095089;28;20066;-54
2022/09/20 08:12:01;;;;;;;6.35;1.40;;;23.20;87.40;;;;;;5095547;28;20435;-55
2022/09/20 08:14:27;;;;;;;5.30;1.67;;;21.60;88.10;;;;;;5095200;28;20117;-55
2022/09/20 08:16:53;;;;;;;6.10;1.60;;;22.20;87.80;;;;;;5095007;28;20059;-54
2022/09/20 08:19:21;;;;;;;7.10;1.70;;;22.60;87.30;;;;;;5094596;28;20528;-55
2022/09/20 08:21:48;;;;;;;4.07;1.52;;;23.20;86.10;;;;;;5095429;28;20551;-55
2022/09/20 08:24:15;;;;;;;8.85;1.58;;;24.40;84.80;;;;;;5094885;28;20118;-54
2022/09/20 08:26:41;;;;;;;9.45;1.70;;;23.50;85.90;;;;;;5094657;28;20383;-54
2022/09/20 08:29:07;;;;;;;4.40;1.45;;;23.90;82.60;;;;;;5094885;28;20039;-54
2022/09/20 08:31:35;;;;;;;4.70;1.55;;;23.50;84.30;;;;;;5094680;28;20495;-54
2022/09/20 08:34:03;;;;;;;5.57;1.75;;;24.60;82.30;;;;;;5094358;28;20028;-54
2022/09/20 08:36:31;;;;;;;3.38;1.48;;;24.70;80.80;;;;;;5094699;28;20028;-55
2022/09/20 08:38:57;;;;;;;3.58;1.65;;;23.70;83.40;;;;;;5094617;28;20429;-54
2022/09/20 08:41:46;;;;;;;5.50;1.38;;;24.40;81.20;;;;;;5094966;28;20028;-53
2022/09/20 08:44:26;;;;;;;4.85;1.90;;;25.20;81.80;;;;;;5094531;28;20489;-54
2022/09/20 08:47:05;;;;;;;5.65;1.40;;;26.00;78.40;;;;;;5094786;28;20016;-54
2022/09/20 08:49:31;;;;;;;6.00;1.60;;;26.20;78.60;;;;;;5093057;28;20055;-54
2022/09/20 08:51:59;;;;;;;5.07;1.33;;;26.40;76.90;;;;;;5094609;28;20028;-54
2022/09/20 08:54:26;;;;;;;4.53;1.45;;;25.60;78.60;;;;;;5094409;28;20478;-55
2022/09/20 08:56:52;;;;;;;5.05;1.50;;;26.60;76.20;;;;;;5094334;28;20417;-54
2022/09/20 08:59:21;;;;;;;7.47;1.63;;;27.30;77.00;;;;;;5094168;28;20093;-54
2022/09/20 09:01:48;;;;;;;4.93;1.60;;;26.30;75.50;;;;;;5094602;28;20024;-54
2022/09/20 09:04:22;;;;;;;4.75;1.70;;;26.40;76.50;;;;;;5093797;28;20107;-55
2022/09/20 09:06:51;;;;;;;6.38;1.63;;;27.10;76.20;;;;;;5093861;28;20089;-52
2022/09/20 09:09:25;;;;;;;4.13;1.25;;;26.30;75.10;;;;;;5094405;28;20390;-55
2022/09/20 09:11:53;;;;;;;4.55;1.60;;;26.40;74.20;;;;;;5094251;28;20446;-55
2022/09/20 09:14:47;;;;;;;3.55;1.52;;;27.00;75.30;;;;;;5093931;28;20110;-55
2022/09/20 09:17:16;;;;;;;8.05;1.50;;;27.70;73.90;;;;;;5092994;28;20044;-56
2022/09/20 09:19:50;;;;;;;3.33;1.40;;;28.50;70.90;;;;;;5093946;28;20051;-56
2022/09/20 09:22:25;;;;;;;4.00;1.50;;;27.50;73.80;;;;;;5094210;28;20490;-54
2022/09/20 09:25:32;;;;;;;3.78;1.55;;;27.60;70.60;;;;;;5093626;28;20024;-56
2022/09/20 09:28:22;;;;;;;5.65;1.55;;;27.30;71.70;;;;;;5093306;28;20490;-56
2022/09/20 09:30:48;;;;;;;6.72;1.50;;;27.30;73.70;;;;;;5093207;28;20020;-56
2022/09/20 09:33:27;;;;;;;5.50;1.42;;;28.40;72.30;;;;;;5093134;28;20028;-56
2022/09/20 09:35:58;;;;;;;3.45;1.33;;;29.10;70.90;;;;;;5093537;28;20403;-53
2022/09/20 09:38:27;;;;;;;5.40;1.50;;;29.70;69.00;;;;;;5093522;28;20021;-53
2022/09/20 09:40:55;;;;;;;4.25;1.27;;;28.90;70.30;;;;;;5093063;28;20035;-54
2022/09/20 09:43:31;;;;;;;6.53;1.55;;;28.60;69.20;;;;;;5103453;28;20039;-53
2022/09/20 09:46:20;;;;;;;2.92;1.27;;;29.30;68.30;;;;;;5103512;28;20501;-55
2022/09/20 09:48:48;;;;;;;3.00;1.35;;;27.90;70.00;;;;;;5101073;28;20038;-52
2022/09/20 09:51:17;;;;;;;2.67;1.20;;;28.30;68.80;;;;;;5103847;28;20393;-54
2022/09/20 09:53:44;;;;;;;5.32;1.65;;;28.40;70.60;;;;;;5102224;28;20043;-55
2022/09/20 09:56:31;;;;;;;5.40;1.48;;;29.10;69.40;;;;;;5102160;28;20099;-55
2022/09/20 09:59:11;;;;;;;4.05;1.45;;;28.90;67.90;;;;;;5103407;28;20446;-55
2022/09/20 10:01:55;;;;;;;5.10;1.40;;;28.90;67.20;;;;;;5101799;28;20024;-52
2022/09/20 10:04:30;;;;;;;7.53;1.70;;;28.00;69.80;;;;;;5099434;28;20032;-52
2022/09/20 10:07:22;;;;;;;10.32;2.10;;;29.40;67.60;;;;;;5101399;28;20502;-53
2022/09/20 10:10:08;;;;;;;16.77;3.50;;;29.10;68.30;;;;;;5101507;28;20031;-53
2022/09/20 10:12:51;;;;;;;6.82;1.80;;;29.50;67.30;;;;;;5101333;28;20024;-52
2022/09/20 10:15:57;;;;;;;8.43;2.70;;;29.60;67.90;;;;;;5095398;28;20028;-53
2022/09/20 10:18:57;;;;;;;5.40;1.75;;;29.00;69.40;;;;;;5013610;28;20544;-56
2022/09/20 10:22:07;;;;;;;4.93;1.77;;;29.90;66.70;;;;;;5026319;28;20030;-55
2022/09/20 10:25:08;;;;;;;8.05;1.92;;;28.30;66.90;;;;;;5020635;28;20041;-52
2022/09/20 10:27:42;;;;;;;6.10;2.03;;;29.40;66.30;;;;;;5017510;28;20504;-53
2022/09/20 10:30:16;;;;;;;4.32;1.40;;;28.50;69.20;;;;;;5020571;28;20591;-51
2022/09/20 10:33:17;;;;;;;5.60;1.60;;;28.10;69.30;;;;;;5022194;28;20034;-53
2022/09/20 10:36:15;;;;;;;3.95;1.70;;;28.50;68.70;;;;;;5018881;28;20156;-54
2022/09/20 10:38:41;;;;;;;4.43;1.40;;;29.80;67.90;;;;;;5018252;28;20038;-53
2022/09/20 10:44:35;;;;;;;4.55;1.55;;;30.20;67.30;;;;;;5019597;28;20037;-54
2022/09/20 10:47:15;;;;;;;4.07;1.30;;;29.80;67.70;;;;;;5018102;28;20148;-53
2022/09/20 10:49:46;;;;;;;6.97;1.65;;;30.40;65.70;;;;;;5019502;28;20030;-52
2022/09/20 10:52:30;;;;;;;4.45;1.30;;;28.00;65.90;;;;;;5056733;28;20036;-52
2022/09/20 10:55:14;;;;;;;3.25;1.30;;;28.00;68.30;;;;;;5098749;28;20032;-68
2022/09/20 10:57:55;;;;;;;4.25;1.25;;;28.40;66.50;;;;;;5099908;28;20035;-68
2022/09/20 11:00:45;;;;;;;4.82;1.80;;;28.20;65.10;;;;;;5099968;28;20020;-68
2022/09/20 11:03:17;;;;;;;5.82;1.40;;;27.90;64.70;;;;;;5102780;28;20073;-67
2022/09/20 11:06:06;;;;;;;5.30;1.40;;;25.90;67.80;;;;;;5101924;28;20051;-67
2022/09/20 11:08:34;;;;;;;4.65;1.30;;;26.70;66.20;;;;;;5102629;28;20027;-67
2022/09/20 11:11:19;;;;;;;6.10;1.30;;;25.40;68.00;;;;;;5092211;28;20028;-69
2022/09/20 11:13:51;;;;;;;2.97;1.10;;;23.30;71.00;;;;;;5095361;28;20435;-70
2022/09/20 11:16:22;;;;;;;4.05;1.60;;;24.40;70.40;;;;;;5095540;28;20024;-70
2022/09/20 11:19:25;;;;;;;6.80;1.50;;;26.00;69.30;;;;;;5095973;28;20074;-70
2022/09/20 11:21:57;;;;;;;6.05;1.38;;;26.10;68.40;;;;;;5013843;28;20033;-69
2022/09/20 11:24:37;;;;;;;3.85;1.30;;;25.10;68.50;;;;;;5013724;28;20087;-70
2022/09/20 11:27:18;;;;;;;4.25;1.30;;;25.50;69.30;;;;;;5014068;28;20196;-70
2022/09/20 11:29:53;;;;;;;4.97;1.52;;;24.10;70.90;;;;;;5013238;28;20104;-70
2022/09/20 11:32:41;;;;;;;8.55;1.40;;;25.70;70.80;;;;;;5013378;28;20087;-70
2022/09/20 11:35:09;;;;;;;3.15;1.10;;;24.20;72.50;;;;;;5013640;28;20096;-70
2022/09/20 11:37:44;;;;;;;2.92;1.30;;;25.50;69.10;;;;;;5013630;28;20487;-69
2022/09/20 11:40:12;;;;;;;4.47;1.30;;;24.20;68.60;;;;;;5013701;28;20042;-70
2022/09/20 11:42:40;;;;;;;4.75;1.27;;;24.00;71.60;;;;;;5013122;28;20026;-69
2022/09/20 11:45:09;;;;;;;4.53;1.25;;;24.10;69.50;;;;;;5013459;28;20046;-69
2022/09/20 11:47:47;;;;;;;6.25;1.30;;;24.20;70.50;;;;;;5013357;28;20483;-70
2022/09/20 11:50:38;;;;;;;4.57;1.13;;;24.60;68.60;;;;;;5013388;28;20038;-70
2022/09/20 11:53:10;;;;;;;5.18;1.40;;;23.40;72.50;;;;;;4974001;28;20604;-69
2022/09/20 11:55:47;;;;;;;3.40;1.20;;;23.50;68.70;;;;;;4974487;28;20105;-69
2022/09/20 11:58:15;;;;;;;6.07;1.30;;;24.00;68.10;;;;;;4997419;28;20037;-69
2022/09/20 12:00:45;;;;;;;8.20;1.42;;;22.50;69.50;;;;;;5032853;28;20053;-69
2022/09/20 12:03:32;;;;;;;6.65;1.48;;;24.20;68.20;;;;;;5032900;28;20026;-69
2022/09/20 12:06:08;;;;;;;3.50;1.23;;;23.00;70.60;;;;;;5032832;28;20041;-69
2022/09/20 12:08:41;;;;;;;2.50;1.20;;;23.30;71.00;;;;;;5032770;28;20030;-69
2022/09/20 12:11:11;;;;;;;5.18;1.55;;;23.70;70.10;;;;;;5032365;28;20152;-69
2022/09/20 12:13:39;;;;;;;6.25;1.30;;;23.60;69.00;;;;;;5032650;28;20032;-69
2022/09/20 12:16:12;;;;;;;8.07;1.40;;;23.70;67.80;;;;;;5032638;28;20423;-68
2022/09/20 12:19:06;;;;;;;3.17;1.30;;;22.90;70.60;;;;;;5032674;28;20034;-69
2022/09/20 12:21:58;;;;;;;5.05;1.27;;;23.70;73.80;;;;;;5032426;28;20083;-69
2022/09/20 12:24:34;;;;;;;3.83;1.33;;;24.10;72.90;;;;;;5031079;28;20033;-69
2022/09/20 12:27:02;;;;;;;4.57;1.30;;;23.70;72.40;;;;;;5032114;28;20065;-69
2022/09/20 12:29:30;;;;;;;2.97;1.10;;;23.40;68.10;;;;;;5049269;28;20032;-69
2022/09/20 12:32:33;;;;;;;3.70;1.02;;;23.40;68.80;;;;;;5095204;28;20048;-69
2022/09/20 12:34:58;;;;;;;5.90;1.50;;;23.50;71.40;;;;;;5094876;28;20031;-69
2022/09/20 12:37:25;;;;;;;4.10;1.33;;;23.30;68.80;;;;;;5094467;28;20028;-69
2022/09/20 12:39:55;;;;;;;9.18;1.58;;;23.70;69.40;;;;;;5094532;28;20017;-69
2022/09/20 12:42:30;;;;;;;4.35;1.30;;;23.30;68.20;;;;;;5094440;28;20028;-69
2022/09/20 12:45:01;;;;;;;5.18;1.45;;;23.20;68.70;;;;;;5094828;28;20039;-69
2022/09/20 12:47:31;;;;;;;5.57;1.20;;;23.40;69.20;;;;;;5094396;28;20024;-69
2022/09/20 12:52:49;;;;;;;5.20;1.50;;;23.50;69.80;;;;;;5094153;28;20051;-69
2022/09/20 12:55:39;;;;;;;8.98;1.65;;;23.60;68.20;;;;;;5093657;28;20024;-70
2022/09/20 12:58:14;;;;;;;5.47;1.20;;;23.70;69.40;;;;;;5094295;28;20103;-69
2022/09/20 13:00:56;;;;;;;6.05;1.20;;;23.60;66.80;;;;;;5094038;28;20455;-69
2022/09/20 13:03:35;;;;;;;2.65;1.00;;;23.00;66.70;;;;;;5094391;28;20249;-69
2022/09/20 13:06:21;;;;;;;3.83;1.30;;;23.90;69.80;;;;;;5094114;28;20080;-69
2022/09/20 13:09:08;;;;;;;2.63;1.30;;;23.50;66.90;;;;;;5094031;28;20028;-70
2022/09/20 13:11:40;;;;;;;4.03;1.30;;;23.40;72.30;;;;;;5093820;28;20035;-69
2022/09/20 13:14:13;;;;;;;5.35;1.42;;;23.80;65.60;;;;;;5093972;28;20028;-69
2022/09/20 13:16:57;;;;;;;5.00;1.42;;;23.60;66.10;;;;;;5094359;28;20490;-69
2022/09/20 13:19:37;;;;;;;4.57;1.10;;;23.70;71.20;;;;;;5093774;28;20043;-69
2022/09/20 13:22:09;;;;;;;6.03;1.35;;;23.30;65.20;;;;;;5093637;28;20028;-69
2022/09/20 13:24:43;;;;;;;3.03;1.30;;;23.70;64.90;;;;;;5093260;28;20062;-69
2022/09/20 13:27:36;;;;;;;7.80;1.55;;;23.40;67.10;;;;;;5093648;28;20039;-69
2022/09/20 13:30:31;;;;;;;4.32;1.20;;;23.50;63.40;;;;;;5093707;28;20039;-69
2022/09/20 13:33:23;;;;;;;2.33;1.05;;;23.30;62.30;;;;;;5091939;28;20390;-68
2022/09/20 13:35:53;;;;;;;3.85;1.33;;;23.20;63.80;;;;;;5093347;28;20123;-69
2022/09/20 13:38:23;;;;;;;3.38;1.40;;;23.50;63.90;;;;;;5093153;28;20085;-69
2022/09/20 13:40:50;;;;;;;4.57;1.05;;;23.30;63.50;;;;;;5093297;28;20413;-68
2022/09/20 13:43:22;;;;;;;2.55;1.20;;;23.50;65.00;;;;;;5093578;28;20100;-69
2022/09/20 13:45:52;;;;;;;6.53;1.20;;;23.70;68.80;;;;;;5093724;28;20089;-69
2022/09/20 13:48:18;;;;;;;4.95;1.23;;;23.80;69.70;;;;;;5093090;28;20024;-69
2022/09/20 13:50:43;;;;;;;7.65;1.20;;;23.80;67.70;;;;;;5093076;28;20031;-69
2022/09/20 13:53:17;;;;;;;4.70;1.27;;;24.00;65.60;;;;;;5092913;28;20569;-69
2022/09/20 13:55:44;;;;;;;4.20;1.27;;;23.40;64.40;;;;;;5093479;28;20046;-69